Time;durP1;ratioP1;P1;durP2;ratioP2;P2;SDS_P1;SDS_P2;PMS_P1;PMS_P2;Temp;Humidity;BMP_temperature;BMP_pressure;BME280_temperature;BME280_humidity;BME280_pressure;Samples;Min_cycle;Max_cycle;Signal;HPM_P1;HPM_P2
2020/12/23 00:00:13;;;;;;;;;;;17.70;75.20;;;;;;5028750;28;19905;-66
2020/12/23 00:02:40;;;;;;;;;;;17.70;75.20;;;;;;5029132;28;19948;-65
2020/12/23 00:05:06;;;;;;;;;;;17.60;75.10;;;;;;5032714;28;19905;-66
2020/12/23 00:07:32;;;;;;;;;;;17.70;75.20;;;;;;5030811;28;19913;-65
2020/12/23 00:09:57;;;;;;;;;;;17.60;75.10;;;;;;5009068;28;19913;-66
2020/12/23 00:12:22;;;;;;;;;;;17.70;75.10;;;;;;5031501;28;19909;-67
2020/12/23 00:14:48;;;;;;;;;;;17.60;75.10;;;;;;5013632;28;19913;-67
2020/12/23 00:17:16;;;;;;;;;;;17.70;75.10;;;;;;5024912;28;19914;-65
2020/12/23 00:19:42;;;;;;;;;;;17.60;75.10;;;;;;5024745;28;20008;-65
2020/12/23 00:22:07;;;;;;;;;;;17.60;75.10;;;;;;4998558;28;20063;-65
2020/12/23 00:24:33;;;;;;;;;;;17.60;75.10;;;;;;5004031;28;19940;-67
2020/12/23 00:26:58;;;;;;;;;;;17.60;75.10;;;;;;5013584;28;19913;-66
2020/12/23 00:29:24;;;;;;;;;;;17.60;75.10;;;;;;5012933;28;19909;-66
2020/12/23 00:31:51;;;;;;;;;;;17.60;75.10;;;;;;5019099;28;19909;-65
2020/12/23 00:34:16;;;;;;;;;;;17.60;75.00;;;;;;5017772;28;19913;-66
2020/12/23 00:36:41;;;;;;;;;;;17.60;75.00;;;;;;5013886;28;19916;-63
2020/12/23 00:39:07;;;;;;;;;;;17.60;75.00;;;;;;5022305;28;19909;-66
2020/12/23 00:41:32;;;;;;;;;;;17.60;75.00;;;;;;5021716;28;19916;-65
2020/12/23 00:43:58;;;;;;;;;;;17.60;75.00;;;;;;5009968;28;19935;-65
2020/12/23 00:46:23;;;;;;;;;;;17.60;75.00;;;;;;5029989;28;20370;-65
2020/12/23 00:48:48;;;;;;;;;;;17.60;74.90;;;;;;5014148;28;20404;-65
2020/12/23 00:51:15;;;;;;;;;;;17.60;74.90;;;;;;5017512;28;19908;-65
2020/12/23 00:53:43;;;;;;;;;;;17.60;74.90;;;;;;5002577;28;19913;-65
2020/12/23 00:56:09;;;;;;;;;;;17.60;75.00;;;;;;5005449;28;19913;-65
2020/12/23 00:58:35;;;;;;;;;;;17.50;74.90;;;;;;5012433;28;19914;-66
2020/12/23 01:01:00;;;;;;;;;;;17.50;74.80;;;;;;5018278;28;20584;-65
2020/12/23 01:03:26;;;;;;;;;;;17.50;74.80;;;;;;5017061;28;20294;-67
2020/12/23 01:05:51;;;;;;;;;;;17.50;74.80;;;;;;5029956;28;19905;-68
2020/12/23 01:08:17;;;;;;;;;;;17.50;74.80;;;;;;5021208;28;19909;-65
2020/12/23 01:10:46;;;;;;;;;;;17.50;74.80;;;;;;5009048;28;19908;-66
2020/12/23 01:13:12;;;;;;;;;;;17.50;74.90;;;;;;5017012;28;20389;-67
2020/12/23 01:15:38;;;;;;;;;;;17.50;74.90;;;;;;5015077;28;19916;-68
2020/12/23 01:18:03;;;;;;;;;;;17.50;75.00;;;;;;5012299;28;19910;-64
2020/12/23 01:20:29;;;;;;;;;;;17.50;74.90;;;;;;5004190;28;20043;-64
2020/12/23 01:22:54;;;;;;;;;;;17.50;74.90;;;;;;5007443;28;20366;-65
2020/12/23 01:25:20;;;;;;;;;;;17.50;74.80;;;;;;5016673;28;20050;-68
2020/12/23 01:27:45;;;;;;;;;;;17.50;75.20;;;;;;5020288;28;19992;-65
2020/12/23 01:30:11;;;;;;;;;;;17.50;74.60;;;;;;5022153;28;19916;-66
2020/12/23 01:32:36;;;;;;;;;;;17.50;74.60;;;;;;5016614;28;20002;-66
2020/12/23 01:35:02;;;;;;;;;;;17.50;74.60;;;;;;5015523;28;19913;-68
2020/12/23 01:37:27;;;;;;;;;;;17.50;74.60;;;;;;4994625;28;19914;-66
2020/12/23 01:39:53;;;;;;;;;;;17.40;74.50;;;;;;5015047;28;19913;-68
2020/12/23 01:42:18;;;;;;;;;;;17.50;74.60;;;;;;5026689;28;19920;-65
2020/12/23 01:44:44;;;;;;;;;;;17.40;74.50;;;;;;5026140;28;19909;-65
2020/12/23 01:47:14;;;;;;;;;;;17.40;74.50;;;;;;5012763;28;20453;-66
2020/12/23 01:49:39;;;;;;;;;;;17.40;74.40;;;;;;4996892;28;19921;-65
2020/12/23 01:52:05;;;;;;;;;;;17.40;74.40;;;;;;5018641;28;19964;-67
2020/12/23 01:54:31;;;;;;;;;;;17.40;74.40;;;;;;5004070;28;19936;-63
2020/12/23 01:56:57;;;;;;;;;;;17.40;74.40;;;;;;5017538;28;19956;-68
2020/12/23 01:59:23;;;;;;;;;;;17.40;74.90;;;;;;5021014;28;19932;-66
2020/12/23 02:01:56;;;;;;;;;;;17.40;74.40;;;;;;5021338;28;19920;-65
2020/12/23 02:04:22;;;;;;;;;;;17.30;74.40;;;;;;5012369;28;19905;-67
2020/12/23 02:06:47;;;;;;;;;;;17.40;74.30;;;;;;5027842;28;19928;-65
2020/12/23 02:09:13;;;;;;;;;;;17.40;74.50;;;;;;5016400;28;19909;-67
2020/12/23 02:11:39;;;;;;;;;;;17.40;74.50;;;;;;5020632;28;19909;-66
2020/12/23 02:14:04;;;;;;;;;;;17.40;74.50;;;;;;5024536;28;19967;-66
2020/12/23 02:16:29;;;;;;;;;;;17.30;74.50;;;;;;5005766;28;19966;-64
2020/12/23 02:18:55;;;;;;;;;;;17.40;74.50;;;;;;5027672;28;20018;-65
2020/12/23 02:21:21;;;;;;;;;;;17.30;74.50;;;;;;5016858;28;19909;-68
2020/12/23 02:23:47;;;;;;;;;;;17.30;74.40;;;;;;5024099;28;19932;-66
2020/12/23 02:26:12;;;;;;;;;;;17.30;74.40;;;;;;5005049;28;19905;-65
2020/12/23 02:28:37;;;;;;;;;;;17.30;74.40;;;;;;5013925;28;20456;-66
2020/12/23 02:31:04;;;;;;;;;;;17.30;74.50;;;;;;5028045;28;19979;-65
2020/12/23 02:33:29;;;;;;;;;;;17.30;74.50;;;;;;4999562;28;19921;-66
2020/12/23 02:35:54;;;;;;;;;;;17.20;74.40;;;;;;5013497;28;20592;-65
2020/12/23 02:38:20;;;;;;;;;;;17.30;74.50;;;;;;4999205;28;20505;-65
2020/12/23 02:40:45;;;;;;;;;;;17.30;74.50;;;;;;5016423;28;19992;-64
2020/12/23 02:43:11;;;;;;;;;;;17.20;74.40;;;;;;5004108;28;20400;-69
2020/12/23 02:45:36;;;;;;;;;;;17.20;74.30;;;;;;5031048;28;19909;-64
2020/12/23 02:48:02;;;;;;;;;;;17.20;74.40;;;;;;5028514;28;19960;-65
2020/12/23 02:50:27;;;;;;;;;;;17.20;74.40;;;;;;4997376;28;19906;-66
2020/12/23 02:52:53;;;;;;;;;;;17.20;74.30;;;;;;5024504;28;19977;-69
2020/12/23 02:55:18;;;;;;;;;;;17.20;74.30;;;;;;5029635;28;20012;-63
2020/12/23 02:57:44;;;;;;;;;;;17.20;74.30;;;;;;5003361;28;19944;-66
2020/12/23 03:00:09;;;;;;;;;;;17.20;74.30;;;;;;5016494;28;19909;-68
2020/12/23 03:02:35;;;;;;;;;;;17.20;74.30;;;;;;5013744;28;19932;-65
2020/12/23 03:05:00;;;;;;;;;;;17.20;74.30;;;;;;5013564;28;19909;-67
2020/12/23 03:07:25;;;;;;;;;;;17.20;74.30;;;;;;5015515;28;19912;-67
2020/12/23 03:09:51;;;;;;;;;;;17.20;74.20;;;;;;5024961;28;19917;-66
2020/12/23 03:12:16;;;;;;;;;;;17.20;74.20;;;;;;5027640;28;19909;-66
2020/12/23 03:14:42;;;;;;;;;;;17.20;74.20;;;;;;5013833;28;19916;-65
2020/12/23 03:17:07;;;;;;;;;;;17.20;74.20;;;;;;5015669;28;19967;-68
2020/12/23 03:19:33;;;;;;;;;;;17.10;74.20;;;;;;5000679;28;20394;-65
2020/12/23 03:21:58;;;;;;;;;;;17.10;74.20;;;;;;5014026;28;20345;-66
2020/12/23 03:24:23;;;;;;;;;;;17.10;74.20;;;;;;5027195;28;19952;-68
2020/12/23 03:26:49;;;;;;;;;;;17.10;74.20;;;;;;5027526;28;19964;-67
2020/12/23 03:29:14;;;;;;;;;;;17.10;74.10;;;;;;5018584;28;19909;-66
2020/12/23 03:31:40;;;;;;;;;;;17.10;74.20;;;;;;5029228;28;19917;-66
2020/12/23 03:34:06;;;;;;;;;;;17.10;74.20;;;;;;5003168;28;20255;-66
2020/12/23 03:36:31;;;;;;;;;;;17.10;74.10;;;;;;5024071;28;19909;-66
2020/12/23 03:38:57;;;;;;;;;;;17.10;74.10;;;;;;5006327;28;19912;-66
2020/12/23 03:41:23;;;;;;;;;;;17.10;74.10;;;;;;5015910;28;19909;-66
2020/12/23 03:43:48;;;;;;;;;;;17.10;74.10;;;;;;5017151;28;19913;-66
2020/12/23 03:46:14;;;;;;;;;;;17.10;74.10;;;;;;5029440;28;19932;-68
2020/12/23 03:48:39;;;;;;;;;;;17.10;74.10;;;;;;4998479;28;20341;-66
2020/12/23 03:51:04;;;;;;;;;;;17.10;74.10;;;;;;5004765;28;19917;-65
2020/12/23 03:53:30;;;;;;;;;;;17.10;74.10;;;;;;5024058;28;19909;-68
2020/12/23 03:55:56;;;;;;;;;;;17.10;74.00;;;;;;5005922;28;19909;-65
2020/12/23 03:58:21;;;;;;;;;;;17.10;74.10;;;;;;5031987;28;20012;-65
2020/12/23 04:00:47;;;;;;;;;;;17.00;74.00;;;;;;5022078;28;19912;-66
2020/12/23 04:03:12;;;;;;;;;;;17.00;73.90;;;;;;5025681;28;19943;-66
2020/12/23 04:05:37;;;;;;;;;;;17.00;74.00;;;;;;5021544;28;19960;-66
2020/12/23 04:08:03;;;;;;;;;;;17.00;74.00;;;;;;5018930;28;19909;-66
2020/12/23 04:10:28;;;;;;;;;;;17.00;73.90;;;;;;5028445;28;19912;-67
2020/12/23 04:12:54;;;;;;;;;;;17.00;74.00;;;;;;5009659;28;19932;-64
2020/12/23 04:15:19;;;;;;;;;;;17.00;74.50;;;;;;5014594;28;19932;-64
2020/12/23 04:17:45;;;;;;;;;;;17.00;74.60;;;;;;5012150;28;19913;-67
2020/12/23 04:20:10;;;;;;;;;;;17.00;74.10;;;;;;5007740;28;19995;-65
2020/12/23 04:22:36;;;;;;;;;;;17.00;74.00;;;;;;5011837;28;20000;-64
2020/12/23 04:25:03;;;;;;;;;;;17.00;74.00;;;;;;5015066;28;19917;-65
2020/12/23 04:27:29;;;;;;;;;;;17.00;74.00;;;;;;5020867;28;19948;-66
2020/12/23 04:29:54;;;;;;;;;;;17.00;74.00;;;;;;5020108;28;19952;-65
2020/12/23 04:32:20;;;;;;;;;;;17.00;73.90;;;;;;5025866;28;19948;-66
2020/12/23 04:34:46;;;;;;;;;;;16.90;73.90;;;;;;5029780;28;20336;-65
2020/12/23 04:37:11;;;;;;;;;;;16.90;73.90;;;;;;4996478;28;19916;-66
2020/12/23 04:39:37;;;;;;;;;;;17.00;74.00;;;;;;5007341;28;19909;-66
2020/12/23 04:42:03;;;;;;;;;;;17.00;74.00;;;;;;5014638;28;19909;-66
2020/12/23 04:44:29;;;;;;;;;;;17.00;74.00;;;;;;5026840;28;19909;-65
2020/12/23 04:46:55;;;;;;;;;;;17.00;74.00;;;;;;5032649;28;19905;-65
2020/12/23 04:49:21;;;;;;;;;;;16.90;73.90;;;;;;5018700;28;19924;-66
2020/12/23 04:51:54;;;;;;;;;;;17.00;73.90;;;;;;5022229;28;19915;-67
2020/12/23 04:54:20;;;;;;;;;;;16.90;73.70;;;;;;5010238;28;20309;-66
2020/12/23 04:56:46;;;;;;;;;;;16.90;73.70;;;;;;4994992;28;19905;-66
2020/12/23 04:59:11;;;;;;;;;;;16.90;73.70;;;;;;5025417;28;19927;-67
2020/12/23 05:01:37;;;;;;;;;;;16.90;73.70;;;;;;5024061;28;19908;-66
2020/12/23 05:04:02;;;;;;;;;;;16.90;73.70;;;;;;5032034;28;19952;-65
2020/12/23 05:06:28;;;;;;;;;;;16.90;73.60;;;;;;5028105;28;19908;-68
2020/12/23 05:08:53;;;;;;;;;;;16.90;73.60;;;;;;5010311;28;19935;-65
2020/12/23 05:11:19;;;;;;;;;;;16.90;73.60;;;;;;5012900;28;19913;-66
2020/12/23 05:13:44;;;;;;;;;;;16.90;73.60;;;;;;5026782;28;19916;-68
2020/12/23 05:16:11;;;;;;;;;;;16.90;73.60;;;;;;5013529;28;20410;-65
2020/12/23 05:18:38;;;;;;;;;;;16.90;73.60;;;;;;5031870;28;19916;-67
2020/12/23 05:21:16;;;;;;;;;;;16.90;73.60;;;;;;5031720;28;19905;-67
2020/12/23 05:23:42;;;;;;;;;;;16.90;73.60;;;;;;5013375;28;19909;-65
2020/12/23 05:26:08;;;;;;;;;;;16.90;73.60;;;;;;5026748;28;19909;-65
2020/12/23 05:28:34;;;;;;;;;;;16.80;73.60;;;;;;5014092;28;19912;-66
2020/12/23 05:31:01;;;;;;;;;;;16.80;73.60;;;;;;5031487;28;19909;-66
2020/12/23 05:33:27;;;;;;;;;;;16.80;73.60;;;;;;5028997;28;19909;-65
2020/12/23 05:35:54;;;;;;;;;;;16.80;73.60;;;;;;5029148;28;19913;-66
2020/12/23 05:38:20;;;;;;;;;;;16.80;73.60;;;;;;5022831;28;19952;-66
2020/12/23 05:40:45;;;;;;;;;;;16.80;73.70;;;;;;5010294;28;19963;-66
2020/12/23 05:43:11;;;;;;;;;;;16.80;73.60;;;;;;5015069;28;19913;-66
2020/12/23 05:45:40;;;;;;;;;;;16.80;73.60;;;;;;5029719;28;19920;-69
2020/12/23 05:48:09;;;;;;;;;;;16.80;73.60;;;;;;5031345;28;19912;-66
2020/12/23 05:50:34;;;;;;;;;;;16.80;73.60;;;;;;5006654;28;19920;-67
2020/12/23 05:53:00;;;;;;;;;;;16.80;73.60;;;;;;5029224;28;19935;-68
2020/12/23 05:55:25;;;;;;;;;;;16.80;73.60;;;;;;5022175;28;19920;-67
2020/12/23 05:57:51;;;;;;;;;;;16.70;73.90;;;;;;5003365;28;19917;-66
2020/12/23 06:00:16;;;;;;;;;;;16.80;73.80;;;;;;5021151;28;20007;-68
2020/12/23 06:03:08;;;;;;;;;;;16.80;73.70;;;;;;5018928;28;20000;-66
2020/12/23 06:05:34;;;;;;;;;;;16.80;73.70;;;;;;5019203;28;19912;-65
2020/12/23 06:08:02;;;;;;;;;;;16.80;73.70;;;;;;5021230;28;19920;-64
2020/12/23 06:10:30;;;;;;;;;;;16.70;73.70;;;;;;5017812;28;19909;-63
2020/12/23 06:12:55;;;;;;;;;;;16.80;73.70;;;;;;5015784;28;19952;-64
2020/12/23 06:15:29;;;;;;;;;;;16.80;73.70;;;;;;5005100;28;19955;-65
2020/12/23 06:17:57;;;;;;;;;;;16.80;73.60;;;;;;5008385;28;19909;-65
2020/12/23 06:20:23;;;;;;;;;;;16.80;73.50;;;;;;5015545;28;19920;-64
2020/12/23 06:22:54;;;;;;;;;;;16.80;73.60;;;;;;5005276;28;19913;-65
2020/12/23 06:25:22;;;;;;;;;;;16.80;73.40;;;;;;5023106;28;20678;-64
2020/12/23 06:27:51;;;;;;;;;;;16.80;73.40;;;;;;5021739;28;19936;-64
2020/12/23 06:30:17;;;;;;;;;;;16.80;73.30;;;;;;5019332;28;19912;-65
2020/12/23 06:32:43;;;;;;;;;;;16.80;73.30;;;;;;5022368;28;20271;-65
2020/12/23 06:35:08;;;;;;;;;;;16.70;73.30;;;;;;5012343;28;19923;-63
2020/12/23 06:37:34;;;;;;;;;;;16.70;73.40;;;;;;5006531;28;20794;-65
2020/12/23 06:40:06;;;;;;;;;;;16.70;73.50;;;;;;5001173;28;19971;-63
2020/12/23 06:42:32;;;;;;;;;;;16.70;73.50;;;;;;5015180;28;20015;-66
2020/12/23 06:45:15;;;;;;;;;;;16.70;73.80;;;;;;5007882;28;20429;-65
2020/12/23 06:47:41;;;;;;;;;;;16.70;74.20;;;;;;5017935;28;20500;-64
2020/12/23 06:50:13;;;;;;;;;;;16.70;73.70;;;;;;5001772;28;19913;-65
2020/12/23 06:52:39;;;;;;;;;;;16.70;73.50;;;;;;5014532;28;19992;-66
2020/12/23 06:55:05;;;;;;;;;;;16.70;73.20;;;;;;5003436;28;19916;-64
2020/12/23 06:57:37;;;;;;;;;;;16.70;73.50;;;;;;4991456;28;19925;-64
2020/12/23 07:00:04;;;;;;;;;;;16.70;73.30;;;;;;5002425;28;19924;-64
2020/12/23 07:02:40;;;;;;;;;;;16.70;73.30;;;;;;5021472;28;19923;-64
2020/12/23 07:05:06;;;;;;;;;;;16.70;73.30;;;;;;5023778;28;20413;-67
2020/12/23 07:07:39;;;;;;;;;;;16.70;73.30;;;;;;4997578;28;19909;-66
2020/12/23 07:10:09;;;;;;;;;;;16.70;73.20;;;;;;4986276;28;19910;-65
2020/12/23 07:12:34;;;;;;;;;;;16.70;73.20;;;;;;4996805;28;19909;-66
2020/12/23 07:15:07;;;;;;;;;;;16.70;73.20;;;;;;5004153;28;20039;-65
2020/12/23 07:17:34;;;;;;;;;;;16.70;73.20;;;;;;5003957;28;19935;-66
2020/12/23 07:20:00;;;;;;;;;;;16.70;73.00;;;;;;5004783;28;19914;-64
2020/12/23 07:22:26;;;;;;;;;;;16.70;73.00;;;;;;5004359;28;19939;-64
2020/12/23 07:24:55;;;;;;;;;;;16.70;73.00;;;;;;5018037;28;19905;-65
2020/12/23 07:27:23;;;;;;;;;;;16.70;73.00;;;;;;4997981;28;19920;-65
2020/12/23 07:29:53;;;;;;;;;;;16.70;73.10;;;;;;5027253;28;19999;-68
2020/12/23 07:32:22;;;;;;;;;;;16.70;73.10;;;;;;5020677;28;19916;-64
2020/12/23 07:34:48;;;;;;;;;;;16.70;73.60;;;;;;5031796;28;19920;-65
2020/12/23 07:37:14;;;;;;;;;;;16.60;73.00;;;;;;5025868;28;20707;-64
2020/12/23 07:39:39;;;;;;;;;;;16.60;73.00;;;;;;5009151;28;19913;-64
2020/12/23 07:42:05;;;;;;;;;;;16.60;73.10;;;;;;5023292;28;19917;-66
2020/12/23 07:44:31;;;;;;;;;;;16.60;73.10;;;;;;5026014;28;19916;-65
2020/12/23 07:47:06;;;;;;;;;;;16.60;73.10;;;;;;5008680;28;19916;-66
2020/12/23 07:49:31;;;;;;;;;;;16.60;73.20;;;;;;5005465;28;20570;-64
2020/12/23 07:51:57;;;;;;;;;;;16.70;73.30;;;;;;5025510;28;19925;-66
2020/12/23 07:54:22;;;;;;;;;;;16.60;73.10;;;;;;5019655;28;19917;-66
2020/12/23 07:56:48;;;;;;;;;;;16.60;73.10;;;;;;5007923;28;19955;-65
2020/12/23 07:59:22;;;;;;;;;;;16.60;73.00;;;;;;5000334;28;19966;-69
2020/12/23 08:01:48;;;;;;;;;;;16.60;72.80;;;;;;5021892;28;19963;-65
2020/12/23 08:04:13;;;;;;;;;;;16.50;72.60;;;;;;5023588;28;19974;-66
2020/12/23 08:06:39;;;;;;;;;;;16.50;72.50;;;;;;5025818;28;19920;-63
2020/12/23 08:09:14;;;;;;;;;;;16.50;72.40;;;;;;5009477;28;19954;-65
2020/12/23 08:11:39;;;;;;;;;;;16.60;72.20;;;;;;5026496;28;19963;-66
2020/12/23 08:14:05;;;;;;;;;;;16.50;72.10;;;;;;5026674;28;19940;-64
2020/12/23 08:16:31;;;;;;;;;;;16.60;72.20;;;;;;5031719;28;19978;-66
2020/12/23 08:18:56;;;;;;;;;;;16.60;72.20;;;;;;5023084;28;20378;-67
2020/12/23 08:21:22;;;;;;;;;;;16.50;72.10;;;;;;5009153;28;19928;-65
2020/12/23 08:23:47;;;;;;;;;;;16.50;72.10;;;;;;5011309;28;19909;-64
2020/12/23 08:26:16;;;;;;;;;;;16.50;72.60;;;;;;5017927;28;19916;-66
2020/12/23 08:28:42;;;;;;;;;;;16.60;72.30;;;;;;5020288;28;20341;-65
2020/12/23 08:31:11;;;;;;;;;;;16.60;72.50;;;;;;5028144;28;20080;-66
2020/12/23 08:33:38;;;;;;;;;;;16.60;72.70;;;;;;5035581;28;19912;-68
2020/12/23 08:36:04;;;;;;;;;;;16.60;73.00;;;;;;5020217;28;19961;-65
2020/12/23 08:38:30;;;;;;;;;;;16.60;72.90;;;;;;5026516;28;20011;-69
2020/12/23 08:40:57;;;;;;;;;;;16.60;73.00;;;;;;5034905;28;19909;-66
2020/12/23 08:43:24;;;;;;;;;;;16.60;72.90;;;;;;5040322;28;20447;-69
2020/12/23 08:45:53;;;;;;;;;;;16.70;73.10;;;;;;5029851;28;19924;-64
2020/12/23 08:48:23;;;;;;;;;;;16.70;73.00;;;;;;5032493;28;19936;-66
2020/12/23 08:50:52;;;;;;;;;;;16.90;73.00;;;;;;5007074;28;19927;-66
2020/12/23 08:53:18;;;;;;;;;;;17.00;72.60;;;;;;5015068;28;19905;-67
2020/12/23 08:55:44;;;;;;;;;;;17.00;72.50;;;;;;5028978;28;19925;-65
2020/12/23 08:58:10;;;;;;;;;;;17.10;72.60;;;;;;5031636;28;19916;-66
2020/12/23 09:00:35;;;;;;;;;;;17.10;72.80;;;;;;5018491;28;20007;-66
2020/12/23 09:03:01;;;;;;;;;;;17.20;72.90;;;;;;5011758;28;20371;-66
2020/12/23 09:05:30;;;;;;;;;;;17.20;72.90;;;;;;5003413;28;19915;-64
2020/12/23 09:08:09;;;;;;;;;;;17.30;73.40;;;;;;5025016;28;19909;-67
2020/12/23 09:10:38;;;;;;;;;;;17.30;73.50;;;;;;5005854;28;19935;-64
2020/12/23 09:13:11;;;;;;;;;;;17.20;74.30;;;;;;5005711;28;19980;-64
2020/12/23 09:15:37;;;;;;;;;;;17.30;73.80;;;;;;5018017;28;19909;-64
2020/12/23 09:18:05;;;;;;;;;;;17.30;73.70;;;;;;5015901;28;20329;-64
2020/12/23 09:20:31;;;;;;;;;;;17.40;73.70;;;;;;5002572;28;19910;-63
2020/12/23 09:22:56;;;;;;;;;;;17.40;73.80;;;;;;5017123;28;19909;-66
2020/12/23 09:25:26;;;;;;;;;;;17.40;73.90;;;;;;5003029;28;19909;-64
2020/12/23 09:27:54;;;;;;;;;;;17.40;74.00;;;;;;5006568;28;19909;-65
2020/12/23 09:30:38;;;;;;;;;;;17.50;74.00;;;;;;5027698;28;20306;-64
2020/12/23 09:33:04;;;;;;;;;;;17.50;73.70;;;;;;5018366;28;19909;-64
2020/12/23 09:35:30;;;;;;;;;;;17.50;73.60;;;;;;5019952;28;19970;-65
2020/12/23 09:38:03;;;;;;;;;;;17.50;73.60;;;;;;4998873;28;19913;-65
2020/12/23 09:40:28;;;;;;;;;;;17.50;73.60;;;;;;5015684;28;19924;-64
2020/12/23 09:42:54;;;;;;;;;;;17.50;73.40;;;;;;5026989;28;20389;-66
2020/12/23 09:45:19;;;;;;;;;;;17.50;73.20;;;;;;5030039;28;19971;-68
2020/12/23 09:47:44;;;;;;;;;;;17.50;73.30;;;;;;5005426;28;19910;-65
2020/12/23 09:50:10;;;;;;;;;;;17.60;73.10;;;;;;5025416;28;20361;-65
2020/12/23 09:52:36;;;;;;;;;;;17.60;73.40;;;;;;5009472;28;19905;-66
2020/12/23 09:55:02;;;;;;;;;;;17.50;73.30;;;;;;4997923;28;20287;-67
2020/12/23 09:57:27;;;;;;;;;;;17.50;73.40;;;;;;5014872;28;19928;-67
2020/12/23 09:59:52;;;;;;;;;;;17.50;73.50;;;;;;5038700;28;19917;-66
2020/12/23 10:02:21;;;;;;;;;;;17.50;73.80;;;;;;5016864;28;19998;-67
2020/12/23 10:07:49;;;;;;;;;;;17.60;74.50;;;;;;5015166;28;19995;-68
2020/12/23 10:10:15;;;;;;;;;;;17.70;74.00;;;;;;5023834;28;19909;-67
2020/12/23 10:12:40;;;;;;;;;;;17.70;73.90;;;;;;5020293;28;19909;-68
2020/12/23 10:15:06;;;;;;;;;;;17.80;74.40;;;;;;5016221;28;20044;-67
2020/12/23 10:17:33;;;;;;;;;;;17.90;74.10;;;;;;5010342;28;19968;-65
2020/12/23 10:19:58;;;;;;;;;;;17.90;73.80;;;;;;4987906;28;19993;-66
2020/12/23 10:22:24;;;;;;;;;;;18.00;73.80;;;;;;5005605;28;19934;-67
2020/12/23 10:24:49;;;;;;;;;;;18.00;73.70;;;;;;5007237;28;19962;-67
2020/12/23 10:27:15;;;;;;;;;;;17.90;73.50;;;;;;5009932;28;19905;-66
2020/12/23 10:29:40;;;;;;;;;;;18.00;73.60;;;;;;4994868;28;19917;-67
2020/12/23 10:32:05;;;;;;;;;;;18.00;73.70;;;;;;4991496;28;19991;-67
2020/12/23 10:34:31;;;;;;;;;;;18.00;73.80;;;;;;5009658;28;20362;-65
2020/12/23 10:36:56;;;;;;;;;;;18.00;73.90;;;;;;5009893;28;20607;-66
2020/12/23 10:39:22;;;;;;;;;;;17.90;74.00;;;;;;4993134;28;19929;-67
2020/12/23 10:41:51;;;;;;;;;;;17.90;74.00;;;;;;4992263;28;19906;-68
2020/12/23 10:44:16;;;;;;;;;;;17.90;74.20;;;;;;5005536;28;19909;-66
2020/12/23 10:46:42;;;;;;;;;;;18.00;74.60;;;;;;5003775;28;20313;-68
2020/12/23 10:49:07;;;;;;;;;;;18.00;74.20;;;;;;5008443;28;20266;-65
2020/12/23 10:51:33;;;;;;;;;;;17.90;74.10;;;;;;5009245;28;19928;-66
2020/12/23 10:53:58;;;;;;;;;;;17.90;74.10;;;;;;5008481;28;20286;-66
2020/12/23 10:56:24;;;;;;;;;;;18.00;74.30;;;;;;5006629;28;19921;-66
2020/12/23 10:58:49;;;;;;;;;;;17.90;74.30;;;;;;4991462;28;20425;-65
2020/12/23 11:01:18;;;;;;;;;;;18.00;74.50;;;;;;4994366;28;19909;-65
2020/12/23 11:03:44;;;;;;;;;;;17.90;74.50;;;;;;4997759;28;20476;-67
2020/12/23 11:06:11;;;;;;;;;;;18.00;74.60;;;;;;5013244;28;19992;-66
2020/12/23 11:08:37;;;;;;;;;;;17.90;75.10;;;;;;5012916;28;19913;-66
2020/12/23 11:11:02;;;;;;;;;;;17.90;74.60;;;;;;4995553;28;20412;-66
2020/12/23 11:13:28;;;;;;;;;;;17.80;74.90;;;;;;5017293;28;19909;-67
2020/12/23 11:15:53;;;;;;;;;;;17.80;74.90;;;;;;5012839;28;19917;-66
2020/12/23 11:18:19;;;;;;;;;;;17.80;74.90;;;;;;4995564;28;20008;-65
2020/12/23 11:20:45;;;;;;;;;;;17.80;74.90;;;;;;4996474;28;19916;-69
2020/12/23 11:23:22;;;;;;;;;;;17.90;75.00;;;;;;5013412;28;19925;-67
2020/12/23 11:25:47;;;;;;;;;;;17.80;74.90;;;;;;5015128;28;19924;-66
2020/12/23 11:28:13;;;;;;;;;;;17.80;74.90;;;;;;5016542;28;19910;-66
2020/12/23 11:30:38;;;;;;;;;;;17.80;75.00;;;;;;4996912;28;20338;-66
2020/12/23 11:33:04;;;;;;;;;;;17.80;75.10;;;;;;5014133;28;20412;-66
2020/12/23 11:35:29;;;;;;;;;;;17.80;75.00;;;;;;5014318;28;20371;-67
2020/12/23 11:37:54;;;;;;;;;;;17.80;75.20;;;;;;5013133;28;20309;-65
2020/12/23 11:40:20;;;;;;;;;;;17.80;75.10;;;;;;5012227;28;19909;-66
2020/12/23 11:42:45;;;;;;;;;;;17.80;75.20;;;;;;5015270;28;19917;-67
2020/12/23 11:45:11;;;;;;;;;;;17.80;74.80;;;;;;5013951;28;19913;-66
2020/12/23 11:47:36;;;;;;;;;;;17.80;74.70;;;;;;5012458;28;20020;-66
2020/12/23 11:50:03;;;;;;;;;;;17.80;74.30;;;;;;5010039;28;19909;-68
2020/12/23 11:52:29;;;;;;;;;;;17.80;74.60;;;;;;4991749;28;19917;-65
2020/12/23 11:54:54;;;;;;;;;;;17.80;74.50;;;;;;4998953;28;19955;-65
2020/12/23 11:57:19;;;;;;;;;;;17.80;74.60;;;;;;5011850;28;19910;-65
2020/12/23 11:59:45;;;;;;;;;;;17.80;74.70;;;;;;5010700;28;19910;-65
2020/12/23 12:02:10;;;;;;;;;;;17.90;74.70;;;;;;5009738;28;19909;-66
2020/12/23 12:04:36;;;;;;;;;;;17.90;74.40;;;;;;4993109;28;19917;-69
2020/12/23 12:07:01;;;;;;;;;;;17.90;74.60;;;;;;5013377;28;19992;-68
2020/12/23 12:09:31;;;;;;;;;;;17.90;74.60;;;;;;5001693;28;20408;-67
2020/12/23 12:11:57;;;;;;;;;;;17.90;74.50;;;;;;5009377;28;19909;-67
2020/12/23 12:14:24;;;;;;;;;;;17.90;74.80;;;;;;4997789;28;19955;-66
2020/12/23 12:16:49;;;;;;;;;;;17.90;74.80;;;;;;5017996;28;19993;-66
2020/12/23 12:19:15;;;;;;;;;;;17.90;74.80;;;;;;5011699;28;19917;-65
2020/12/23 12:21:40;;;;;;;;;;;17.90;75.00;;;;;;5023131;28;20059;-65
2020/12/23 12:24:05;;;;;;;;;;;17.90;75.00;;;;;;5011021;28;19913;-66
2020/12/23 12:26:32;;;;;;;;;;;17.80;75.00;;;;;;5012291;28;19995;-64
2020/12/23 12:28:58;;;;;;;;;;;17.80;74.90;;;;;;5013042;28;20060;-65
2020/12/23 12:31:24;;;;;;;;;;;17.90;75.10;;;;;;5022437;28;20011;-66
2020/12/23 12:33:49;;;;;;;;;;;17.80;75.00;;;;;;5025965;28;19952;-66
2020/12/23 12:36:15;;;;;;;;;;;17.80;75.30;;;;;;5004361;28;19909;-65
2020/12/23 12:38:40;;;;;;;;;;;17.90;75.30;;;;;;5012133;28;19924;-66
2020/12/23 12:41:06;;;;;;;;;;;17.90;75.50;;;;;;5011329;28;20337;-64
2020/12/23 12:43:31;;;;;;;;;;;17.90;75.20;;;;;;4989394;28;20544;-64
2020/12/23 12:45:56;;;;;;;;;;;18.00;75.50;;;;;;4984723;28;19945;-62
2020/12/23 12:48:22;;;;;;;;;;;17.90;75.20;;;;;;5010655;28;19909;-63
2020/12/23 12:50:47;;;;;;;;;;;18.00;75.10;;;;;;5010438;28;19917;-65
2020/12/23 12:53:13;;;;;;;;;;;18.00;74.90;;;;;;5010263;28;19917;-66
2020/12/23 12:55:39;;;;;;;;;;;18.00;75.00;;;;;;4999935;28;19909;-65
2020/12/23 12:58:04;;;;;;;;;;;18.00;75.20;;;;;;5015511;28;19922;-66
2020/12/23 13:00:31;;;;;;;;;;;17.90;75.20;;;;;;5011313;28;19905;-63
2020/12/23 13:02:56;;;;;;;;;;;17.90;75.40;;;;;;5009170;28;19984;-65
2020/12/23 13:05:22;;;;;;;;;;;17.90;75.50;;;;;;4996607;28;20000;-64
2020/12/23 13:07:47;;;;;;;;;;;18.00;75.20;;;;;;5008826;28;19916;-64
2020/12/23 13:10:13;;;;;;;;;;;18.00;74.80;;;;;;4991950;28;20426;-65
2020/12/23 13:12:38;;;;;;;;;;;18.00;74.70;;;;;;5011781;28;19968;-67
2020/12/23 13:15:04;;;;;;;;;;;18.00;74.60;;;;;;4993663;28;19905;-64
2020/12/23 13:17:30;;;;;;;;;;;17.90;74.60;;;;;;4993111;28;19921;-65
2020/12/23 13:19:55;;;;;;;;;;;17.90;74.80;;;;;;4995204;28;20043;-64
2020/12/23 13:22:21;;;;;;;;;;;18.00;75.10;;;;;;4993405;28;19989;-65
2020/12/23 13:24:46;;;;;;;;;;;18.00;74.90;;;;;;4992460;28;19924;-64
2020/12/23 13:27:12;;;;;;;;;;;18.00;74.80;;;;;;5009157;28;19909;-65
2020/12/23 13:29:37;;;;;;;;;;;18.00;74.80;;;;;;5010696;28;20609;-65
2020/12/23 13:32:03;;;;;;;;;;;18.00;74.70;;;;;;4998163;28;19909;-63
2020/12/23 13:34:29;;;;;;;;;;;18.00;74.30;;;;;;4993505;28;20100;-65
2020/12/23 13:36:54;;;;;;;;;;;17.90;74.00;;;;;;5008606;28;20372;-64
2020/12/23 13:39:20;;;;;;;;;;;17.80;74.30;;;;;;4992767;28;20000;-65
2020/12/23 13:41:46;;;;;;;;;;;17.80;74.60;;;;;;5011312;28;20036;-64
2020/12/23 13:44:11;;;;;;;;;;;17.70;74.70;;;;;;5009790;28;19992;-65
2020/12/23 13:46:37;;;;;;;;;;;17.70;74.70;;;;;;4991645;28;20028;-65
2020/12/23 13:49:02;;;;;;;;;;;17.70;73.90;;;;;;5010408;28;20000;-63
2020/12/23 13:51:28;;;;;;;;;;;17.60;74.00;;;;;;5009642;28;19909;-64
2020/12/23 13:53:53;;;;;;;;;;;17.60;74.10;;;;;;5010209;28;19916;-64
2020/12/23 13:56:19;;;;;;;;;;;17.60;74.20;;;;;;5003654;28;19980;-64
2020/12/23 13:58:45;;;;;;;;;;;17.60;74.20;;;;;;4993235;28;19921;-64
2020/12/23 14:01:12;;;;;;;;;;;17.70;74.50;;;;;;5011051;28;20286;-63
2020/12/23 14:03:38;;;;;;;;;;;17.70;74.30;;;;;;5010959;28;19909;-66
2020/12/23 14:06:04;;;;;;;;;;;17.70;74.40;;;;;;4992439;28;19909;-65
2020/12/23 14:08:30;;;;;;;;;;;17.60;74.50;;;;;;5004618;28;19913;-65
2020/12/23 14:10:55;;;;;;;;;;;17.70;74.60;;;;;;5010829;28;19917;-64
2020/12/23 14:13:21;;;;;;;;;;;17.70;74.80;;;;;;5010059;28;19910;-64